Avalon, Wisconsin
Current Conditions -  °F | °C
As of 2:15 AM on Monday 22 Dec 2014 (Local Time) from KJVL Reporting Station
Light Snow Light Snow  
Wind Chill: -4°   Ceiling: 1500
Heat Index:   Visibility: 4mi
Dew Point:   Wind: 12mph
Humidity: 93%   Direction: 160°SSE
Pressure: 29.93"   Gusts: NA
Location:  42.63°N, 88.87°W
Report Text: KJVL 220815Z AUTO 16010KT 4SM -SN BKN015 OVC025 01/00 A2993 RMK AO2
Loading
Personal Weather Stations






























Interactive Weather Map New forecast layout! Learn more

10-Day Weather Forecast

Advertisements
Track Severe Weather on mobile